createdAt,value
2022-07-29T00:00:49.875Z,25.19
2022-07-29T00:03:18.353Z,25.11
2022-07-29T00:05:47.586Z,25.07
2022-07-29T00:08:16.473Z,25.07
2022-07-29T00:10:45.885Z,25.06
2022-07-29T00:13:16.195Z,25.07
2022-07-29T00:15:44.558Z,25.03
2022-07-29T00:18:13.571Z,25.02
2022-07-29T00:20:41.930Z,24.95
2022-07-29T00:23:13.690Z,24.94
2022-07-29T00:25:42.228Z,24.95
2022-07-29T00:28:11.615Z,24.89
2022-07-29T00:30:43.886Z,24.87
2022-07-29T00:33:13.108Z,24.87
2022-07-29T00:35:46.188Z,24.89
2022-07-29T00:38:17.113Z,24.86
2022-07-29T00:40:46.726Z,24.81
2022-07-29T00:43:16.595Z,24.80
2022-07-29T00:45:46.451Z,24.72
2022-07-29T00:48:15.618Z,24.67
2022-07-29T00:50:44.284Z,24.66
2022-07-29T00:53:14.454Z,24.66
2022-07-29T00:55:42.811Z,24.57
2022-07-29T00:58:14.462Z,24.65
2022-07-29T01:00:46.511Z,24.60
2022-07-29T01:03:15.154Z,24.59
2022-07-29T01:05:48.432Z,24.55
2022-07-29T01:08:22.374Z,24.51
2022-07-29T01:10:51.597Z,24.50
2022-07-29T01:13:22.389Z,24.53
2022-07-29T01:15:59.003Z,24.51
2022-07-29T01:18:34.536Z,24.50
2022-07-29T01:21:23.768Z,24.56
2022-07-29T01:24:22.047Z,24.47
2022-07-29T01:26:54.410Z,24.39
2022-07-29T01:29:38.498Z,24.35
2022-07-29T01:32:18.062Z,24.34
2022-07-29T01:35:04.646Z,24.38
2022-07-29T01:37:40.095Z,24.38
2022-07-29T01:40:16.506Z,24.37
2022-07-29T01:42:46.649Z,24.27
2022-07-29T01:45:21.900Z,24.25
2022-07-29T01:47:58.636Z,24.27
2022-07-29T01:50:40.573Z,24.25
2022-07-29T01:53:12.503Z,24.21
2022-07-29T01:55:44.988Z,24.23
2022-07-29T01:58:16.231Z,24.24
2022-07-29T02:00:52.372Z,24.25
2022-07-29T02:03:22.031Z,24.26
2022-07-29T02:05:53.323Z,24.18
2022-07-29T02:08:23.213Z,24.14
2022-07-29T02:10:52.575Z,24.12
2022-07-29T02:13:25.122Z,24.07
2022-07-29T02:15:55.859Z,23.96
2022-07-29T02:18:29.531Z,23.86
2022-07-29T02:21:00.634Z,23.86
2022-07-29T02:23:30.287Z,23.79
2022-07-29T02:26:00.983Z,23.67
2022-07-29T02:28:31.750Z,23.61
2022-07-29T02:31:04.332Z,23.56
2022-07-29T02:33:34.222Z,23.53
2022-07-29T02:36:04.283Z,23.48
2022-07-29T02:38:52.783Z,23.32
2022-07-29T02:41:25.513Z,23.17
2022-07-29T02:43:57.937Z,23.16
2022-07-29T02:46:32.748Z,22.96
2022-07-29T02:49:06.561Z,22.84
2022-07-29T02:51:45.170Z,22.87
2022-07-29T02:54:24.131Z,22.88
2022-07-29T02:56:56.502Z,22.86
2022-07-29T02:59:29.439Z,22.82
2022-07-29T03:02:01.037Z,22.77
2022-07-29T03:04:33.054Z,22.82
2022-07-29T03:07:02.912Z,22.89
2022-07-29T03:09:32.916Z,22.91
2022-07-29T03:12:03.204Z,22.93
2022-07-29T03:14:34.635Z,22.94
2022-07-29T03:17:05.186Z,22.94
2022-07-29T03:19:35.608Z,22.85
2022-07-29T03:22:04.274Z,22.79
2022-07-29T03:24:36.569Z,22.70
2022-07-29T03:27:06.279Z,22.67
2022-07-29T03:29:35.720Z,22.69
2022-07-29T03:32:08.955Z,22.66
2022-07-29T03:34:39.657Z,22.68
2022-07-29T03:37:08.796Z,22.72
2022-07-29T03:39:42.976Z,22.79
2022-07-29T03:42:15.694Z,22.84
2022-07-29T03:44:47.963Z,22.91
2022-07-29T03:47:21.479Z,22.99
2022-07-29T03:49:55.219Z,23.00
2022-07-29T03:52:23.626Z,23.12
2022-07-29T03:54:52.066Z,23.18
2022-07-29T03:57:26.316Z,23.20
2022-07-29T03:59:55.497Z,23.22
2022-07-29T04:02:30.722Z,23.26
2022-07-29T04:04:59.624Z,23.27
2022-07-29T04:07:28.626Z,23.25
2022-07-29T04:09:57.465Z,23.27
2022-07-29T04:12:25.839Z,23.23
2022-07-29T04:14:54.553Z,23.19
2022-07-29T04:17:23.088Z,23.14
2022-07-29T04:19:53.600Z,23.14
2022-07-29T04:22:21.928Z,23.15
2022-07-29T04:24:52.151Z,23.19
2022-07-29T04:27:21.170Z,23.21
2022-07-29T04:29:57.033Z,23.21
2022-07-29T04:32:27.149Z,23.23
2022-07-29T04:34:57.671Z,23.23
2022-07-29T04:37:26.596Z,23.23
2022-07-29T04:39:55.580Z,23.24
2022-07-29T04:42:27.558Z,23.27
2022-07-29T04:44:58.151Z,23.28
2022-07-29T04:47:29.747Z,23.28
2022-07-29T04:50:00.240Z,23.30
2022-07-29T04:52:28.672Z,23.31
2022-07-29T04:54:57.725Z,23.35
2022-07-29T04:57:26.068Z,23.39
2022-07-29T04:59:55.026Z,23.46
2022-07-29T05:02:24.402Z,23.53
2022-07-29T05:04:52.877Z,23.49
2022-07-29T05:07:23.441Z,23.49
2022-07-29T05:09:51.868Z,23.48
2022-07-29T05:12:21.303Z,23.44
2022-07-29T05:14:50.097Z,23.37
2022-07-29T05:17:18.576Z,23.33
2022-07-29T05:19:47.684Z,23.35
2022-07-29T05:22:16.061Z,23.42
2022-07-29T05:24:46.191Z,23.44
2022-07-29T05:27:14.782Z,23.46
2022-07-29T05:29:45.816Z,23.50
2022-07-29T05:32:14.740Z,23.56
2022-07-29T05:34:50.394Z,23.54
2022-07-29T05:37:21.219Z,23.58
2022-07-29T05:39:56.565Z,23.58
2022-07-29T05:42:26.602Z,23.56
2022-07-29T05:44:55.633Z,23.62
2022-07-29T05:47:24.677Z,23.58
2022-07-29T05:49:53.863Z,23.58
2022-07-29T05:52:22.710Z,23.52
2022-07-29T05:54:52.851Z,23.55
2022-07-29T05:57:22.153Z,23.60
2022-07-29T05:59:52.340Z,23.61
2022-07-29T06:02:20.883Z,23.69
2022-07-29T06:04:50.716Z,23.73
2022-07-29T06:07:19.573Z,23.80
2022-07-29T06:09:47.945Z,23.83
2022-07-29T06:12:18.032Z,23.89
2022-07-29T06:14:48.917Z,23.94
2022-07-29T06:17:20.039Z,24.02
2022-07-29T06:19:48.439Z,24.07
2022-07-29T06:22:17.875Z,24.10
2022-07-29T06:24:46.464Z,24.13
2022-07-29T06:27:15.489Z,24.16
2022-07-29T06:29:45.446Z,24.20
2022-07-29T06:32:15.116Z,24.21
2022-07-29T06:34:44.333Z,24.17
2022-07-29T06:37:18.573Z,24.16
2022-07-29T06:39:48.967Z,24.20
2022-07-29T06:42:17.342Z,24.27
2022-07-29T06:44:47.551Z,24.35
2022-07-29T06:47:15.948Z,24.39
2022-07-29T06:49:45.048Z,24.51
2022-07-29T06:52:13.424Z,24.59
2022-07-29T06:54:49.195Z,24.61
2022-07-29T06:57:17.575Z,24.67
2022-07-29T06:59:47.716Z,24.74
2022-07-29T07:02:16.306Z,24.69
2022-07-29T07:04:45.263Z,24.74
2022-07-29T07:07:13.644Z,24.73
2022-07-29T07:09:42.940Z,24.66
2022-07-29T07:12:11.624Z,24.75
2022-07-29T07:14:41.187Z,24.82
2022-07-29T07:17:11.443Z,24.82
2022-07-29T07:19:39.805Z,24.87
2022-07-29T07:22:08.272Z,24.91
2022-07-29T07:24:36.799Z,25.00
2022-07-29T07:27:05.951Z,24.93
2022-07-29T07:29:35.188Z,25.05
2022-07-29T07:32:04.405Z,25.12
2022-07-29T07:34:34.556Z,25.22
2022-07-29T07:37:03.664Z,25.35
2022-07-29T07:39:32.023Z,25.38
2022-07-29T07:42:01.075Z,25.43
2022-07-29T07:44:29.432Z,25.43
2022-07-29T07:46:58.175Z,25.39
2022-07-29T07:49:32.194Z,25.35
2022-07-29T07:52:02.970Z,25.33
2022-07-29T07:54:31.981Z,25.25
2022-07-29T07:57:01.564Z,25.09
2022-07-29T07:59:30.020Z,25.10
2022-07-29T08:01:58.841Z,25.16
2022-07-29T08:04:29.062Z,25.24
2022-07-29T08:06:59.970Z,25.29
2022-07-29T08:09:32.206Z,25.33
2022-07-29T08:12:03.701Z,25.28
2022-07-29T08:14:32.483Z,25.37
2022-07-29T08:17:02.001Z,25.44
2022-07-29T08:19:30.990Z,25.54
2022-07-29T08:21:59.763Z,25.57
2022-07-29T08:24:55.570Z,25.70
2022-07-29T08:27:43.337Z,25.71
2022-07-29T08:30:13.860Z,25.79
2022-07-29T08:32:57.921Z,25.86
2022-07-29T08:35:30.972Z,26.00
2022-07-29T08:38:02.164Z,26.05
2022-07-29T08:40:32.437Z,26.21
2022-07-29T08:43:07.225Z,26.21
2022-07-29T08:45:47.309Z,26.37
2022-07-29T08:48:18.249Z,26.42
2022-07-29T08:50:48.087Z,26.50
2022-07-29T08:53:19.929Z,26.67
2022-07-29T08:55:50.457Z,26.90
2022-07-29T08:58:24.535Z,27.13
2022-07-29T09:00:56.671Z,27.19
2022-07-29T09:03:32.655Z,27.11
2022-07-29T09:06:01.780Z,27.11
2022-07-29T09:08:30.264Z,27.36
2022-07-29T09:11:01.408Z,27.49
2022-07-29T09:13:33.962Z,27.63
2022-07-29T09:16:08.565Z,27.68
2022-07-29T09:18:39.170Z,27.73
2022-07-29T09:21:27.422Z,27.79
2022-07-29T09:24:08.387Z,27.86
2022-07-29T09:26:38.827Z,28.08
2022-07-29T09:29:13.178Z,28.25
2022-07-29T09:31:44.809Z,28.53
2022-07-29T09:34:15.371Z,28.58
2022-07-29T09:36:45.688Z,28.78
2022-07-29T09:39:15.640Z,28.90
2022-07-29T09:41:48.484Z,29.14
2022-07-29T09:44:19.744Z,29.22
2022-07-29T09:46:59.740Z,29.31
2022-07-29T09:49:28.535Z,29.63
2022-07-29T09:52:08.030Z,29.85
2022-07-29T09:54:41.164Z,30.14
2022-07-29T09:57:13.454Z,30.35
2022-07-29T09:59:58.391Z,30.48
2022-07-29T10:02:31.928Z,30.64
2022-07-29T10:05:02.115Z,30.66
2022-07-29T10:07:48.350Z,30.82
2022-07-29T10:10:22.289Z,30.67
2022-07-29T10:12:53.253Z,30.63
2022-07-29T10:15:25.911Z,30.72
2022-07-29T10:17:55.494Z,30.94
2022-07-29T10:20:26.458Z,31.23
2022-07-29T10:22:55.355Z,31.43
2022-07-29T10:25:25.980Z,31.60
2022-07-29T10:27:55.824Z,31.72
2022-07-29T10:30:27.258Z,31.75
2022-07-29T10:33:32.374Z,31.60
2022-07-29T10:36:14.252Z,31.33
2022-07-29T10:38:52.965Z,31.15
2022-07-29T10:41:55.412Z,31.00
2022-07-29T10:44:26.916Z,30.66
2022-07-29T10:46:56.879Z,30.49
2022-07-29T10:49:31.113Z,30.45
2022-07-29T10:52:06.451Z,30.68
2022-07-29T10:54:47.596Z,30.82
2022-07-29T10:57:53.140Z,31.39
2022-07-29T11:00:34.529Z,32.01
2022-07-29T11:03:04.549Z,31.73
2022-07-29T11:05:59.884Z,31.24
2022-07-29T11:08:29.199Z,31.08
2022-07-29T11:11:44.154Z,30.97
2022-07-29T11:14:20.058Z,31.10
2022-07-29T11:17:07.180Z,31.15
2022-07-29T11:19:40.251Z,31.19
2022-07-29T11:22:11.671Z,31.07
2022-07-29T11:24:50.128Z,31.23
2022-07-29T11:27:21.405Z,32.03
2022-07-29T11:29:56.378Z,32.61
2022-07-29T11:35:37.215Z,32.77
2022-07-29T11:38:28.565Z,32.44
2022-07-29T11:41:26.027Z,32.23
2022-07-29T11:43:58.595Z,31.82
2022-07-29T11:46:47.544Z,31.62
2022-07-29T11:49:22.088Z,31.55
2022-07-29T11:52:03.938Z,31.47
2022-07-29T11:57:36.100Z,31.32
2022-07-29T12:00:12.254Z,31.45
2022-07-29T12:02:48.238Z,31.92
2022-07-29T12:07:02.300Z,31.44
2022-07-29T12:08:17.121Z,32.46
2022-07-29T12:10:47.000Z,32.38
2022-07-29T12:13:20.229Z,32.82
2022-07-29T12:16:00.192Z,32.73
2022-07-29T12:18:28.822Z,32.40
2022-07-29T12:21:03.439Z,32.38
2022-07-29T12:23:35.019Z,33.01
2022-07-29T12:26:10.871Z,33.76
2022-07-29T12:28:50.661Z,33.69
2022-07-29T12:31:43.538Z,33.47
2022-07-29T12:34:08.682Z,33.36
2022-07-29T12:36:38.850Z,33.60
2022-07-29T12:39:10.053Z,34.07
2022-07-29T12:41:39.935Z,34.05
2022-07-29T12:44:08.319Z,33.87
2022-07-29T12:46:37.178Z,33.87
2022-07-29T12:49:06.746Z,33.76
2022-07-29T12:51:37.735Z,34.40
2022-07-29T12:54:11.415Z,34.97
2022-07-29T12:56:43.600Z,35.49
2022-07-29T12:59:19.585Z,36.06
2022-07-29T13:01:50.273Z,36.24
2022-07-29T13:04:29.883Z,35.84
2022-07-29T13:07:04.510Z,35.85
2022-07-29T13:09:42.508Z,35.88
2022-07-29T13:12:13.068Z,35.69
2022-07-29T13:14:43.006Z,35.43
2022-07-29T13:17:13.652Z,35.13
2022-07-29T13:19:45.494Z,34.91
2022-07-29T13:22:16.205Z,35.27
2022-07-29T13:24:50.521Z,35.17
2022-07-29T13:27:19.573Z,35.29
2022-07-29T13:29:48.269Z,35.58
2022-07-29T13:32:16.761Z,35.80
2022-07-29T13:34:45.861Z,35.91
2022-07-29T13:37:14.465Z,36.16
2022-07-29T13:39:43.504Z,36.17
2022-07-29T13:42:22.779Z,36.19
2022-07-29T13:44:52.972Z,35.64
2022-07-29T13:47:22.033Z,35.18
2022-07-29T13:49:51.308Z,34.64
2022-07-29T13:52:19.680Z,34.58
2022-07-29T13:54:49.581Z,34.72
2022-07-29T13:57:18.212Z,35.31
2022-07-29T13:59:53.745Z,36.04
2022-07-29T14:02:25.327Z,36.54
2022-07-29T14:04:55.476Z,36.40
2022-07-29T14:07:24.510Z,36.15
2022-07-29T14:09:53.312Z,36.15
2022-07-29T14:12:22.338Z,35.90
2022-07-29T14:14:52.130Z,34.99
2022-07-29T14:17:21.489Z,34.30
2022-07-29T14:19:50.100Z,33.86
2022-07-29T14:22:20.088Z,33.63
2022-07-29T14:24:51.900Z,33.43
2022-07-29T14:27:37.479Z,33.27
2022-07-29T14:30:10.637Z,33.17
2022-07-29T14:32:39.113Z,32.98
2022-07-29T14:35:08.786Z,32.71
2022-07-29T14:37:40.518Z,32.80
2022-07-29T14:40:10.686Z,32.84
2022-07-29T14:42:40.218Z,33.32
2022-07-29T14:45:12.068Z,33.42
2022-07-29T14:47:41.616Z,33.56
2022-07-29T14:50:11.330Z,34.08
2022-07-29T14:52:40.296Z,34.25
2022-07-29T14:55:16.668Z,34.06
2022-07-29T14:57:49.559Z,33.91
2022-07-29T15:00:19.871Z,33.71
2022-07-29T15:03:04.511Z,33.63
2022-07-29T15:05:33.539Z,33.34
2022-07-29T15:08:02.907Z,33.30
2022-07-29T15:10:33.281Z,33.23
2022-07-29T15:13:02.032Z,32.95
2022-07-29T15:15:31.790Z,32.69
2022-07-29T15:18:00.725Z,32.64
2022-07-29T15:20:29.207Z,32.71
2022-07-29T15:22:58.417Z,32.61
2022-07-29T15:25:28.031Z,32.53
2022-07-29T15:28:01.276Z,32.43
2022-07-29T15:30:34.550Z,32.29
2022-07-29T15:33:05.070Z,32.12
2022-07-29T15:35:33.563Z,31.91
2022-07-29T15:38:09.882Z,31.69
2022-07-29T15:40:39.240Z,31.53
2022-07-29T15:43:08.160Z,31.49
2022-07-29T15:45:40.332Z,31.49
2022-07-29T15:48:14.592Z,31.42
2022-07-29T15:50:47.050Z,31.34
2022-07-29T15:53:16.549Z,31.14
2022-07-29T15:55:46.017Z,30.98
2022-07-29T15:58:14.883Z,30.78
2022-07-29T16:00:44.658Z,30.63
2022-07-29T16:03:13.700Z,30.45
2022-07-29T16:05:42.187Z,30.35
2022-07-29T16:08:11.114Z,30.32
2022-07-29T16:10:39.723Z,30.36
2022-07-29T16:13:08.376Z,30.50
2022-07-29T16:15:37.326Z,30.63
2022-07-29T16:18:09.087Z,30.58
2022-07-29T16:20:38.011Z,30.38
2022-07-29T16:23:07.917Z,30.35
2022-07-29T16:25:58.468Z,30.31
2022-07-29T16:28:25.269Z,30.15
2022-07-29T16:30:53.661Z,30.10
2022-07-29T16:33:24.392Z,29.97
2022-07-29T16:35:52.902Z,29.87
2022-07-29T16:38:21.707Z,29.69
2022-07-29T16:40:50.314Z,29.53
2022-07-29T16:43:18.946Z,29.31
2022-07-29T16:45:48.009Z,29.17
2022-07-29T16:48:17.315Z,29.05
2022-07-29T16:50:48.446Z,29.01
2022-07-29T16:53:17.556Z,28.97
2022-07-29T16:55:46.033Z,28.90
2022-07-29T16:58:14.711Z,28.83
2022-07-29T17:00:43.117Z,28.76
2022-07-29T17:03:13.549Z,28.58
2022-07-29T17:05:53.708Z,28.47
2022-07-29T17:08:25.072Z,28.35
2022-07-29T17:10:53.444Z,28.32
2022-07-29T17:13:22.241Z,28.29
2022-07-29T17:15:50.695Z,28.21
2022-07-29T17:18:19.174Z,28.11
2022-07-29T17:20:47.507Z,28.05
2022-07-29T17:23:16.580Z,28.00
2022-07-29T17:25:46.407Z,27.97
2022-07-29T17:28:15.026Z,27.97
2022-07-29T17:30:43.376Z,27.92
2022-07-29T17:33:11.944Z,27.89
2022-07-29T17:35:59.491Z,27.90
2022-07-29T17:38:27.881Z,27.81
2022-07-29T17:40:58.331Z,27.74
2022-07-29T17:43:26.703Z,27.66
2022-07-29T17:45:59.120Z,27.53
2022-07-29T17:48:28.203Z,27.41
2022-07-29T17:50:57.664Z,27.46
2022-07-29T17:53:26.091Z,27.39
2022-07-29T17:55:56.439Z,27.38
2022-07-29T17:58:26.551Z,27.32
2022-07-29T18:00:55.566Z,27.10
2022-07-29T18:03:24.195Z,27.08
2022-07-29T18:05:53.893Z,27.07
2022-07-29T18:08:22.251Z,27.00
2022-07-29T18:10:52.283Z,27.04
2022-07-29T18:13:21.612Z,26.98
2022-07-29T18:15:52.387Z,27.01
2022-07-29T18:18:20.783Z,26.94
2022-07-29T18:20:49.307Z,26.85
2022-07-29T18:23:18.153Z,26.76
2022-07-29T18:25:46.494Z,26.70
2022-07-29T18:28:15.285Z,26.64
2022-07-29T18:30:46.035Z,26.62
2022-07-29T18:33:21.782Z,26.53
2022-07-29T18:36:10.588Z,26.46
2022-07-29T18:38:41.379Z,26.24
2022-07-29T18:41:09.844Z,26.16
2022-07-29T18:43:38.975Z,26.17
2022-07-29T18:46:07.653Z,26.09
2022-07-29T18:48:37.408Z,25.96
2022-07-29T18:51:09.371Z,25.85
2022-07-29T18:53:38.625Z,25.72
2022-07-29T18:56:07.008Z,25.70
2022-07-29T18:58:37.393Z,25.63
2022-07-29T19:01:06.092Z,25.60
2022-07-29T19:03:34.904Z,25.62
2022-07-29T19:06:04.890Z,25.57
2022-07-29T19:08:34.015Z,25.53
2022-07-29T19:11:02.344Z,25.52
2022-07-29T19:13:31.244Z,25.45
2022-07-29T19:15:59.629Z,25.35
2022-07-29T19:18:28.672Z,25.38
2022-07-29T19:20:57.027Z,25.27
2022-07-29T19:23:27.279Z,25.30
2022-07-29T19:25:55.705Z,25.26
2022-07-29T19:28:24.466Z,25.22
2022-07-29T19:30:53.517Z,25.19
2022-07-29T19:33:22.620Z,25.20
2022-07-29T19:35:54.773Z,25.22
2022-07-29T19:38:24.683Z,25.19
2022-07-29T19:40:54.465Z,25.13
2022-07-29T19:43:50.409Z,25.09
2022-07-29T19:46:12.183Z,24.93
2022-07-29T19:48:41.137Z,24.78
2022-07-29T19:51:09.523Z,24.61
2022-07-29T19:53:38.403Z,24.55
2022-07-29T19:56:08.818Z,24.52
2022-07-29T19:58:38.189Z,24.46
2022-07-29T20:01:10.812Z,24.36
2022-07-29T20:03:41.106Z,24.32
2022-07-29T20:06:09.542Z,24.26
2022-07-29T20:08:38.374Z,24.19
2022-07-29T20:11:08.116Z,24.11
2022-07-29T20:13:37.122Z,24.10
2022-07-29T20:16:08.236Z,24.06
2022-07-29T20:18:37.377Z,24.09
2022-07-29T20:21:05.751Z,24.10
2022-07-29T20:23:34.773Z,24.07
2022-07-29T20:26:06.126Z,24.00
2022-07-29T20:28:40.543Z,23.96
2022-07-29T20:31:09.043Z,24.02
2022-07-29T20:33:38.247Z,23.88
2022-07-29T20:36:07.015Z,23.72
2022-07-29T20:38:36.079Z,23.44
2022-07-29T20:41:04.929Z,23.32
2022-07-29T20:43:39.055Z,23.19
2022-07-29T20:46:10.048Z,23.02
2022-07-29T20:48:40.129Z,22.98
2022-07-29T20:51:08.722Z,22.94
2022-07-29T20:53:39.002Z,22.86
2022-07-29T20:56:08.555Z,22.77
2022-07-29T20:58:38.383Z,22.78
2022-07-29T21:01:07.403Z,22.65
2022-07-29T21:03:37.886Z,22.59
2022-07-29T21:06:07.747Z,22.62
2022-07-29T21:08:36.411Z,22.58
2022-07-29T21:11:05.355Z,22.50
2022-07-29T21:13:38.452Z,22.45
2022-07-29T21:16:14.860Z,22.29
2022-07-29T21:18:46.833Z,22.18
2022-07-29T21:21:16.239Z,22.07
2022-07-29T21:23:46.231Z,22.10
2022-07-29T21:26:15.910Z,22.13
2022-07-29T21:28:43.894Z,22.18
2022-07-29T21:31:14.888Z,22.23
2022-07-29T21:33:47.116Z,22.25
2022-07-29T21:36:46.722Z,22.12
2022-07-29T21:39:08.009Z,22.11
2022-07-29T21:41:36.437Z,22.16
2022-07-29T21:44:05.131Z,22.18
2022-07-29T21:46:33.531Z,22.22
2022-07-29T21:49:03.683Z,22.25
2022-07-29T21:51:32.092Z,22.25
2022-07-29T21:54:00.952Z,22.27
2022-07-29T21:56:30.638Z,22.32
2022-07-29T21:59:00.440Z,22.26
2022-07-29T22:01:28.855Z,22.26
2022-07-29T22:04:09.716Z,22.19
2022-07-29T22:06:38.189Z,22.15
2022-07-29T22:09:07.142Z,22.17
2022-07-29T22:11:37.026Z,22.20
2022-07-29T22:14:05.459Z,22.25
2022-07-29T22:16:34.637Z,22.26
2022-07-29T22:19:04.189Z,22.26
2022-07-29T22:21:34.473Z,22.27
2022-07-29T22:24:02.860Z,22.25
2022-07-29T22:26:31.795Z,22.23
2022-07-29T22:29:00.209Z,22.20
2022-07-29T22:31:29.109Z,22.17
2022-07-29T22:33:57.457Z,22.14
2022-07-29T22:36:26.830Z,22.10
2022-07-29T22:38:56.527Z,22.10
2022-07-29T22:41:25.405Z,22.09
2022-07-29T22:43:53.800Z,22.02
2022-07-29T22:46:22.893Z,22.01
2022-07-29T22:48:51.450Z,22.01
2022-07-29T22:51:21.451Z,22.03
2022-07-29T22:53:49.828Z,21.97
2022-07-29T22:56:21.443Z,21.99
2022-07-29T22:58:50.292Z,21.95
2022-07-29T23:01:37.144Z,21.89
2022-07-29T23:04:07.289Z,21.79
2022-07-29T23:06:36.199Z,21.74
2022-07-29T23:09:05.332Z,21.68
2022-07-29T23:11:35.411Z,21.61
2022-07-29T23:14:04.535Z,21.48
2022-07-29T23:16:38.308Z,21.39
2022-07-29T23:19:07.183Z,21.37
2022-07-29T23:21:35.525Z,21.35
2022-07-29T23:24:04.629Z,21.31
2022-07-29T23:26:32.968Z,21.30
2022-07-29T23:29:03.498Z,21.31
2022-07-29T23:31:31.867Z,21.32
2022-07-29T23:34:00.503Z,21.23
2022-07-29T23:36:29.108Z,21.14
2022-07-29T23:38:58.628Z,21.07
2022-07-29T23:41:30.249Z,21.10
2022-07-29T23:44:00.200Z,21.07
2022-07-29T23:46:29.957Z,21.01
2022-07-29T23:48:58.881Z,20.99
2022-07-29T23:51:29.010Z,21.05
2022-07-29T23:53:58.344Z,21.06
2022-07-29T23:56:26.721Z,20.99
2022-07-29T23:58:55.621Z,20.95
